Time;durP1;ratioP1;P1;durP2;ratioP2;P2;SDS_P1;SDS_P2;PMS_P1;PMS_P2;Temp;Humidity;BMP_temperature;BMP_pressure;BME280_temperature;BME280_humidity;BME280_pressure;Samples;Min_cycle;Max_cycle;Signal;HPM_P1;HPM_P2
2021/07/01 00:02:09;;;;;;;3.77;1.98;;;;;;;19.70;82.88;99601.88;2703579;88;21147;-64
2021/07/01 00:06:12;;;;;;;3.50;1.87;;;;;;;19.69;82.86;99604.79;2750013;86;21111;-64
2021/07/01 00:10:24;;;;;;;2.92;1.65;;;;;;;19.70;82.88;99607.27;2747922;86;21083;-64
2021/07/01 00:14:27;;;;;;;2.62;1.72;;;;;;;19.66;83.03;99601.16;2756759;86;21012;-64
2021/07/01 00:18:31;;;;;;;3.20;1.70;;;;;;;19.66;83.54;99598.45;2769475;86;21036;-64
2021/07/01 00:22:33;;;;;;;3.22;1.82;;;;;;;19.74;83.09;99593.37;2703327;86;21673;-64
2021/07/01 00:26:37;;;;;;;5.90;1.80;;;;;;;19.66;82.44;99603.85;2769469;86;21051;-64
2021/07/01 00:30:40;;;;;;;2.40;1.40;;;;;;;19.61;82.98;99594.16;2703677;88;21171;-64
2021/07/01 00:34:43;;;;;;;4.08;1.62;;;;;;;19.62;82.89;99594.47;2706157;86;21058;-65
2021/07/01 00:38:51;;;;;;;3.43;1.97;;;;;;;19.62;82.20;99603.91;2684851;88;21024;-64
2021/07/01 00:42:56;;;;;;;2.92;1.90;;;;;;;19.58;82.02;99600.81;2648976;90;21040;-64
2021/07/01 00:46:59;;;;;;;4.33;2.35;;;;;;;19.58;81.77;99598.62;2648935;89;21055;-64
2021/07/01 00:51:07;;;;;;;2.83;1.67;;;;;;;19.59;81.61;99590.84;2648865;90;21130;-64
2021/07/01 00:55:12;;;;;;;4.53;1.95;;;;;;;19.63;81.47;99594.28;2648872;90;21111;-64
2021/07/01 00:59:16;;;;;;;3.22;1.50;;;;;;;19.61;81.24;99589.61;2648807;90;21094;-64
2021/07/01 01:03:19;;;;;;;2.70;2.25;;;;;;;19.61;80.80;99582.02;2648598;90;21020;-64
2021/07/01 01:07:23;;;;;;;4.83;2.02;;;;;;;19.54;80.54;99584.19;2648450;90;21036;-64
2021/07/01 01:11:27;;;;;;;5.75;2.50;;;;;;;19.41;80.69;99581.44;2648300;90;21052;-63
2021/07/01 01:15:30;;;;;;;7.60;2.40;;;;;;;19.37;80.80;99580.17;2648226;89;21103;-64
2021/07/01 01:19:33;;;;;;;5.58;2.42;;;;;;;19.31;81.07;99572.37;2648480;88;21074;-64
2021/07/01 01:23:36;;;;;;;7.12;1.62;;;;;;;19.32;81.07;99574.03;2648607;90;21084;-64
2021/07/01 01:27:39;;;;;;;8.20;1.75;;;;;;;19.34;80.95;99567.10;2648378;89;21091;-64
2021/07/01 01:31:41;;;;;;;4.75;1.80;;;;;;;19.29;80.83;99562.84;2648417;89;21061;-63
2021/07/01 01:35:45;;;;;;;10.98;1.90;;;;;;;19.17;80.99;99563.93;2666827;88;21079;-63
2021/07/01 01:39:50;;;;;;;12.95;2.77;;;;;;;19.06;81.69;99555.86;2692084;87;21613;-64
2021/07/01 01:43:54;;;;;;;8.15;2.02;;;;;;;18.93;81.98;99557.44;2693980;88;21102;-64
2021/07/01 01:47:58;;;;;;;8.98;2.60;;;;;;;18.73;82.67;99556.49;2649165;90;21639;-64
2021/07/01 01:52:01;;;;;;;7.37;2.35;;;;;;;18.55;83.46;99559.16;2648920;90;21076;-64
2021/07/01 01:56:04;;;;;;;7.87;2.37;;;;;;;18.55;84.56;99553.25;2649841;89;21020;-64
2021/07/01 02:00:17;;;;;;;4.75;2.25;;;;;;;18.59;84.22;99555.05;2651477;89;21009;-64
2021/07/01 02:04:19;;;;;;;5.80;2.25;;;;;;;18.52;84.27;99554.99;2682526;88;21692;-64
2021/07/01 02:08:23;;;;;;;5.67;2.12;;;;;;;18.46;84.49;99557.13;2693821;88;21063;-64
2021/07/01 02:12:27;;;;;;;6.67;2.20;;;;;;;18.47;84.86;99553.41;2693849;88;21028;-64
2021/07/01 02:16:30;;;;;;;5.55;2.17;;;;;;;18.53;84.77;99561.22;2693853;88;21580;-64
2021/07/01 02:20:33;;;;;;;7.53;2.50;;;;;;;18.64;84.75;99559.32;2693840;88;21064;-64
2021/07/01 02:24:35;;;;;;;5.25;1.95;;;;;;;18.74;84.34;99563.55;2694155;88;21509;-64
2021/07/01 02:28:39;;;;;;;6.47;1.85;;;;;;;18.82;84.11;99563.38;2693627;88;21039;-64
2021/07/01 02:32:44;;;;;;;5.80;2.35;;;;;;;18.96;84.23;99559.73;2694178;88;21043;-64
2021/07/01 02:36:47;;;;;;;5.83;2.60;;;;;;;19.03;83.79;99552.22;2697774;86;21039;-65
2021/07/01 02:40:49;;;;;;;3.95;1.95;;;;;;;19.08;83.41;99549.25;2756543;86;21063;-64
2021/07/01 02:44:52;;;;;;;8.88;2.72;;;;;;;19.07;83.07;99544.08;2756233;86;21062;-64
2021/07/01 02:48:57;;;;;;;5.30;2.92;;;;;;;19.10;83.21;99542.33;2755685;86;20987;-64
2021/07/01 02:53:00;;;;;;;5.83;2.40;;;;;;;19.10;82.72;99550.41;2763896;85;21028;-65
2021/07/01 02:57:04;;;;;;;11.18;2.98;;;;;;;19.09;83.31;99550.91;2777523;85;21065;-65
2021/07/01 03:01:08;;;;;;;7.40;1.95;;;;;;;19.17;82.87;99549.10;2709909;87;21095;-65
2021/07/01 03:05:11;;;;;;;20.70;3.02;;;;;;;19.23;82.93;99554.50;2728826;87;20971;-68
2021/07/01 03:09:16;;;;;;;6.45;2.27;;;;;;;19.29;82.75;99554.22;2710439;87;21118;-68
2021/07/01 03:13:19;;;;;;;5.03;2.07;;;;;;;19.35;82.44;99555.28;2727242;87;21090;-68
2021/07/01 03:17:25;;;;;;;6.25;1.85;;;;;;;19.25;82.34;99563.21;2755377;86;21145;-64
2021/07/01 03:21:27;;;;;;;;;;;;;;;19.23;83.26;99559.89;2760287;86;21008;-64
2021/07/01 03:25:30;;;;;;;4.37;1.92;;;;;;;19.28;83.54;99561.17;2749037;85;20157;-63
2021/07/01 03:29:33;;;;;;;4.47;2.00;;;;;;;19.23;83.64;99563.94;2748201;86;21051;-64
2021/07/01 03:33:37;;;;;;;10.15;2.22;;;;;;;19.21;83.61;99563.30;2748956;85;21047;-64
2021/07/01 03:37:40;;;;;;;8.20;1.87;;;;;;;19.29;84.00;99569.58;2747066;86;21012;-64
2021/07/01 03:41:43;;;;;;;1.60;1.47;;;;;;;19.40;84.16;99567.13;2745673;85;21067;-64
2021/07/01 03:45:46;;;;;;;6.33;1.70;;;;;;;19.47;83.69;99564.47;2756385;85;21043;-64
2021/07/01 03:49:49;;;;;;;2.60;1.62;;;;;;;19.47;84.16;99567.16;2766108;85;20992;-64
2021/07/01 03:53:51;;;;;;;3.87;1.65;;;;;;;19.54;84.17;99572.05;2775739;85;21019;-64
2021/07/01 03:57:54;;;;;;;3.45;2.05;;;;;;;19.55;84.08;99580.45;2768130;85;21051;-64
2021/07/01 04:01:57;;;;;;;4.47;1.82;;;;;;;19.58;84.07;99579.23;2769834;85;20968;-64
2021/07/01 04:06:00;;;;;;;4.30;1.75;;;;;;;19.62;84.03;99580.98;2770083;85;21039;-65
2021/07/01 04:10:15;;;;;;;4.45;0.90;;;;;;;19.65;83.97;99584.63;2756570;86;20972;-66
2021/07/01 04:14:17;;;;;;;1.15;1.00;;;;;;;19.67;83.59;99585.28;2756304;86;21075;-66
2021/07/01 04:18:19;;;;;;;6.83;1.65;;;;;;;19.69;83.55;99580.52;2764918;85;21067;-66
2021/07/01 04:22:22;;;;;;;1.22;0.95;;;;;;;19.72;83.05;99577.40;2760281;85;21087;-66
2021/07/01 04:26:26;;;;;;;1.62;1.35;;;;;;;19.73;83.15;99575.02;2757196;86;21008;-63
2021/07/01 04:30:29;;;;;;;1.65;1.10;;;;;;;19.75;83.00;99576.98;2758675;85;21031;-64
2021/07/01 04:34:32;;;;;;;6.20;2.20;;;;;;;19.80;82.21;99577.20;2779016;85;20980;-63
2021/07/01 04:38:37;;;;;;;3.62;1.50;;;;;;;19.89;82.33;99582.42;2708620;87;21119;-64
2021/07/01 04:42:40;;;;;;;3.62;1.00;;;;;;;19.99;82.96;99588.27;2722089;87;21035;-62
2021/07/01 04:46:45;;;;;;;5.22;1.60;;;;;;;20.15;83.32;99583.53;2749229;86;21552;-62
2021/07/01 04:50:50;;;;;;;4.83;1.30;;;;;;;20.33;83.50;99582.91;2749501;86;21529;-62
2021/07/01 04:54:53;;;;;;;4.05;1.37;;;;;;;20.46;82.68;99584.80;2749892;86;21023;-62
2021/07/01 04:58:58;;;;;;;5.20;1.57;;;;;;;20.58;82.06;99587.16;2749674;86;21031;-62
2021/07/01 05:03:01;;;;;;;;;;;;;;;20.61;82.02;99596.20;2752201;86;21080;-62
2021/07/01 05:07:04;;;;;;;1.70;1.25;;;;;;;20.71;80.94;99596.31;2702998;88;20101;-62
2021/07/01 05:11:06;;;;;;;1.25;0.85;;;;;;;20.77;80.39;99591.41;2720677;87;21027;-62
2021/07/01 05:15:11;;;;;;;1.92;1.10;;;;;;;20.80;79.17;99600.47;2749761;86;21639;-62
2021/07/01 05:24:49;;;;;;;1.65;1.25;;;;;;;20.82;78.37;99597.03;2749908;86;21055;-62
2021/07/01 05:29:29;;;;;;;2.80;1.37;;;;;;;20.96;78.90;99608.14;2750270;86;21019;-62
2021/07/01 05:33:31;;;;;;;2.55;0.90;;;;;;;21.06;79.42;99613.11;2750269;86;21020;-62
2021/07/01 05:38:11;;;;;;;4.62;0.82;;;;;;;21.20;80.21;99615.25;2748732;86;21000;-62
2021/07/01 05:42:14;;;;;;;4.97;1.80;;;;;;;21.30;79.09;99616.70;2706999;86;21015;-62
2021/07/01 05:46:17;;;;;;;1.37;1.10;;;;;;;21.34;78.09;99610.66;2703415;88;20996;-62
2021/07/01 05:51:02;;;;;;;1.00;0.90;;;;;;;21.39;77.71;99614.05;2703525;88;21060;-62
2021/07/01 05:55:06;;;;;;;1.20;0.90;;;;;;;21.46;76.23;99620.29;2703486;86;21062;-61
2021/07/01 05:59:46;;;;;;;2.00;1.02;;;;;;;21.51;75.64;99625.03;2704151;87;21026;-62
2021/07/01 06:03:49;;;;;;;2.05;0.78;;;;;;;21.74;76.78;99628.62;2704000;88;20983;-62
2021/07/01 06:08:29;;;;;;;8.05;1.17;;;;;;;22.23;75.80;99622.73;2704323;88;20979;-62
2021/07/01 06:12:34;;;;;;;2.02;0.93;;;;;;;22.45;71.81;99616.94;2704235;88;21055;-63
2021/07/01 06:16:39;;;;;;;1.70;1.42;;;;;;;22.41;71.01;99613.83;2753769;85;20973;-62
2021/07/01 06:20:46;;;;;;;3.22;1.07;;;;;;;22.50;71.51;99614.42;2761506;85;21131;-63
2021/07/01 06:24:57;;;;;;;2.00;1.45;;;;;;;22.61;71.13;99610.16;2703244;88;21011;-62
2021/07/01 06:29:00;;;;;;;1.40;0.85;;;;;;;22.67;69.44;99618.23;2751887;86;21040;-62
2021/07/01 06:33:05;;;;;;;0.65;0.65;;;;;;;22.62;68.52;99609.95;2703807;88;21030;-62
2021/07/01 06:37:09;;;;;;;2.52;1.20;;;;;;;22.58;68.37;99616.84;2703942;87;21079;-62
2021/07/01 06:41:14;;;;;;;1.17;1.07;;;;;;;22.59;68.12;99624.45;2737513;86;21013;-62
2021/07/01 06:45:18;;;;;;;2.08;0.98;;;;;;;22.70;68.59;99628.32;2729604;87;21076;-62
2021/07/01 06:49:25;;;;;;;1.70;0.95;;;;;;;23.03;69.79;99623.12;2730850;86;21029;-62
2021/07/01 06:53:28;;;;;;;2.60;1.25;;;;;;;23.33;68.96;99625.95;2710118;87;21766;-61
2021/07/01 06:57:35;;;;;;;2.80;1.32;;;;;;;23.53;68.42;99630.31;2730854;86;21085;-61
2021/07/01 07:01:39;;;;;;;1.47;1.10;;;;;;;23.56;65.43;99634.44;2730675;87;21016;-62
2021/07/01 07:05:42;;;;;;;1.17;0.98;;;;;;;23.47;65.82;99633.40;2730627;87;21028;-61
2021/07/01 07:09:45;;;;;;;2.00;0.55;;;;;;;23.57;66.66;99632.86;2730833;87;21027;-61
2021/07/01 07:13:48;;;;;;;1.45;1.35;;;;;;;23.63;66.09;99641.44;2729941;87;21064;-62
2021/07/01 07:18:15;;;;;;;3.60;2.10;;;;;;;23.70;66.22;99637.29;2730694;86;21048;-62
2021/07/01 07:22:20;;;;;;;2.33;1.20;;;;;;;23.69;65.64;99641.06;2730581;86;21814;-62
2021/07/01 07:26:25;;;;;;;;;;;;;;;23.68;65.98;99638.05;2733215;87;21080;-62
2021/07/01 07:30:29;;;;;;;1.95;1.85;;;;;;;23.70;66.53;99635.12;2797940;85;20087;-62
2021/07/01 07:34:33;;;;;;;2.25;2.08;;;;;;;23.88;66.27;99635.09;2798329;85;21019;-62
2021/07/01 07:38:38;;;;;;;1.70;1.57;;;;;;;24.24;66.30;99640.11;2798170;84;21031;-62
2021/07/01 07:42:47;;;;;;;2.40;1.92;;;;;;;24.27;63.97;99644.27;2768983;85;21036;-62
2021/07/01 07:46:51;;;;;;;4.35;2.27;;;;;;;23.90;65.18;99645.70;2710935;87;21035;-62
2021/07/01 07:50:56;;;;;;;7.37;2.62;;;;;;;23.60;66.16;99650.59;2745264;86;21004;-62
2021/07/01 07:55:02;;;;;;;;;;;;;;;23.11;66.52;99652.65;2747369;85;21119;-62
2021/07/01 07:59:07;;;;;;;2.02;1.82;;;;;;;23.01;68.36;99663.20;2745188;86;20088;-62
2021/07/01 08:03:12;;;;;;;;;;;;;;;23.25;66.81;99656.92;2713268;87;21094;-61
2021/07/01 08:07:17;;;;;;;2.20;1.70;;;;;;;23.80;66.45;99650.32;2745144;86;20447;-62
2021/07/01 08:11:23;;;;;;;3.05;1.85;;;;;;;24.38;64.75;99658.42;2745549;86;21067;-62
2021/07/01 08:15:26;;;;;;;2.35;2.15;;;;;;;24.29;63.45;99648.94;2710667;88;20987;-62
2021/07/01 08:19:29;;;;;;;2.50;2.30;;;;;;;24.28;64.22;99644.56;2710870;87;21066;-62
2021/07/01 08:23:33;;;;;;;1.22;1.12;;;;;;;24.49;62.99;99650.52;2711144;88;21054;-62
2021/07/01 08:27:46;;;;;;;1.95;1.75;;;;;;;24.75;62.09;99639.77;2710812;88;20989;-63
2021/07/01 08:31:49;;;;;;;3.12;2.00;;;;;;;24.79;61.49;99646.92;2711155;87;20991;-62
2021/07/01 08:35:55;;;;;;;1.93;1.83;;;;;;;25.04;61.40;99644.49;2738291;86;21068;-62
2021/07/01 08:40:08;;;;;;;2.00;1.57;;;;;;;25.22;60.05;99642.16;2711623;86;21031;-62
2021/07/01 08:44:18;;;;;;;1.47;1.37;;;;;;;25.51;60.79;99635.45;2711713;87;21067;-62
2021/07/01 08:48:59;;;;;;;2.00;1.17;;;;;;;25.24;59.91;99635.94;2710772;87;21051;-62
2021/07/01 08:53:10;;;;;;;2.47;1.35;;;;;;;25.06;61.03;99638.28;2745697;85;21064;-62
2021/07/01 08:57:16;;;;;;;1.27;0.95;;;;;;;25.43;58.00;99628.98;2710393;87;21038;-62
2021/07/01 09:01:19;;;;;;;1.92;1.62;;;;;;;25.57;56.48;99630.95;2711187;87;21026;-62
2021/07/01 09:05:26;;;;;;;4.67;1.22;;;;;;;25.61;59.26;99632.92;2745601;85;21095;-62
2021/07/01 09:09:37;;;;;;;1.42;0.90;;;;;;;25.77;59.76;99629.15;2745714;85;21004;-63
2021/07/01 09:13:45;;;;;;;3.87;1.10;;;;;;;25.88;58.43;99628.28;2745723;86;21946;-63
2021/07/01 09:17:53;;;;;;;1.20;1.10;;;;;;;25.65;57.70;99636.00;2711178;87;21083;-63
2021/07/01 09:21:59;;;;;;;4.62;0.93;;;;;;;25.85;57.82;99637.47;2711424;88;21134;-62
2021/07/01 09:26:05;;;;;;;6.85;2.22;;;;;;;25.83;56.73;99636.34;2745907;86;21043;-64
2021/07/01 09:30:10;;;;;;;0.88;0.88;;;;;;;25.47;56.79;99641.91;2711697;87;21071;-63
2021/07/01 09:34:16;;;;;;;1.50;1.27;;;;;;;25.27;56.07;99638.73;2745832;85;21031;-62
2021/07/01 09:38:20;;;;;;;1.77;1.02;;;;;;;25.10;57.44;99638.09;2746188;85;21084;-62
2021/07/01 09:42:25;;;;;;;1.82;1.47;;;;;;;25.33;56.87;99624.99;2703765;86;21094;-63
2021/07/01 09:46:30;;;;;;;1.35;0.78;;;;;;;25.32;56.18;99617.05;2745775;86;21079;-62
2021/07/01 09:50:46;;;;;;;1.70;1.02;;;;;;;25.32;57.43;99611.61;2699498;87;21034;-62
2021/07/01 09:54:51;;;;;;;1.12;0.88;;;;;;;25.69;57.14;99605.85;2699636;88;21011;-63
2021/07/01 09:59:01;;;;;;;2.33;1.15;;;;;;;25.82;55.97;99606.09;2761191;85;21011;-62
2021/07/01 10:03:11;;;;;;;1.12;1.02;;;;;;;25.68;54.80;99601.47;2760887;85;21079;-62
2021/07/01 10:07:21;;;;;;;3.95;1.20;;;;;;;25.55;57.40;99601.75;2699680;87;20972;-62
2021/07/01 10:11:41;;;;;;;1.70;1.05;;;;;;;25.82;58.46;99612.89;2761226;86;21043;-62
2021/07/01 10:15:46;;;;;;;4.53;1.32;;;;;;;26.16;56.82;99606.70;2699499;87;21015;-62
2021/07/01 10:19:52;;;;;;;3.62;1.87;;;;;;;26.15;56.66;99600.41;2699341;88;21063;-62
2021/07/01 10:24:16;;;;;;;4.17;1.25;;;;;;;25.94;58.57;99606.03;2759916;86;21485;-63
2021/07/01 10:28:31;;;;;;;3.80;1.35;;;;;;;25.64;57.87;99600.31;2699497;87;21031;-62
2021/07/01 10:32:42;;;;;;;2.83;1.92;;;;;;;25.32;58.76;99605.65;2699099;88;21062;-62
2021/07/01 10:36:46;;;;;;;1.57;1.47;;;;;;;25.42;58.35;99599.59;2760614;85;21056;-62
2021/07/01 10:40:52;;;;;;;1.37;1.27;;;;;;;25.57;57.22;99588.20;2702354;86;21035;-62
2021/07/01 10:45:11;;;;;;;2.35;2.08;;;;;;;25.44;57.95;99596.09;2745839;86;21004;-62
2021/07/01 10:49:21;;;;;;;1.57;1.47;;;;;;;25.59;57.75;99593.41;2711661;87;21018;-62
2021/07/01 10:53:40;;;;;;;3.30;2.35;;;;;;;25.74;57.82;99595.59;2745431;86;21079;-62
2021/07/01 10:57:56;;;;;;;3.67;3.33;;;;;;;26.00;57.78;99609.16;2746294;86;21055;-63
2021/07/01 11:02:07;;;;;;;2.60;2.40;;;;;;;25.85;58.09;99610.23;2745788;86;21016;-63
2021/07/01 11:06:16;;;;;;;3.42;2.40;;;;;;;25.56;59.41;99608.88;2746013;86;21029;-63
2021/07/01 11:10:24;;;;;;;2.27;2.08;;;;;;;25.47;61.25;99618.77;2746318;86;21071;-62
2021/07/01 11:14:43;;;;;;;2.83;2.47;;;;;;;25.75;60.36;99612.23;2708725;87;21073;-62
2021/07/01 11:18:50;;;;;;;6.78;3.62;;;;;;;25.45;60.67;99618.67;2705320;87;21051;-62
2021/07/01 11:22:58;;;;;;;2.50;2.00;;;;;;;25.00;62.09;99629.72;2711858;87;21019;-61
2021/07/01 11:27:02;;;;;;;11.38;2.95;;;;;;;24.79;62.63;99634.69;2745824;85;21000;-61
2021/07/01 11:31:05;;;;;;;1.85;1.75;;;;;;;24.80;61.89;99625.47;2745929;86;21036;-62
2021/07/01 11:35:09;;;;;;;8.90;2.10;;;;;;;24.67;62.59;99637.38;2745617;85;20988;-63
2021/07/01 11:39:16;;;;;;;1.80;1.70;;;;;;;24.52;63.85;99644.61;2711342;87;21074;-62
2021/07/01 11:43:20;;;;;;;3.83;1.62;;;;;;;24.79;63.28;99634.69;2733082;85;21614;-62
2021/07/01 11:47:24;;;;;;;3.52;1.10;;;;;;;25.15;61.31;99636.84;2731228;87;21032;-62
2021/07/01 11:51:27;;;;;;;0.37;0.37;;;;;;;25.31;58.35;99634.45;2730889;87;21077;-62
2021/07/01 11:55:30;;;;;;;1.50;1.10;;;;;;;25.43;54.20;99633.91;2731265;87;21075;-62
2021/07/01 11:59:34;;;;;;;4.87;2.17;;;;;;;25.61;54.53;99638.92;2731429;86;21016;-62
2021/07/01 12:03:40;;;;;;;2.30;1.20;;;;;;;25.75;56.36;99644.39;2731490;87;21021;-62
2021/07/01 12:07:52;;;;;;;2.77;1.50;;;;;;;25.92;55.86;99639.50;2731732;87;21062;-62
2021/07/01 12:12:07;;;;;;;1.67;1.40;;;;;;;26.08;58.27;99636.55;2731548;87;21012;-62
2021/07/01 12:16:16;;;;;;;2.33;1.35;;;;;;;26.32;55.60;99638.61;2731610;87;21072;-62
2021/07/01 12:20:54;;;;;;;4.87;1.60;;;;;;;26.36;55.34;99637.59;2731417;87;21068;-61
2021/07/01 12:24:56;;;;;;;1.72;1.62;;;;;;;26.44;55.89;99637.72;2731513;86;21597;-62
2021/07/01 12:29:04;;;;;;;1.65;1.55;;;;;;;26.61;55.77;99635.83;2731654;87;21045;-62
2021/07/01 12:33:48;;;;;;;1.52;1.42;;;;;;;26.87;55.79;99636.23;2731628;87;21096;-63
2021/07/01 12:38:05;;;;;;;1.98;1.62;;;;;;;27.18;56.68;99636.69;2731360;87;21064;-62
2021/07/01 12:42:18;;;;;;;3.87;2.30;;;;;;;27.04;54.14;99645.78;2731167;86;21059;-63
2021/07/01 12:46:46;;;;;;;2.55;2.22;;;;;;;26.64;56.33;99661.23;2741612;86;21028;-63
2021/07/01 12:50:49;;;;;;;4.80;2.02;;;;;;;26.20;56.92;99661.04;2741562;86;29336;-62
2021/07/01 12:54:55;;;;;;;5.85;2.77;;;;;;;25.68;57.31;99668.20;2740642;86;21098;-63
2021/07/01 12:58:59;;;;;;;3.70;2.55;;;;;;;25.20;59.59;99676.95;2702899;88;21131;-63
2021/07/01 13:03:04;;;;;;;2.98;2.15;;;;;;;25.02;59.33;99669.20;2703397;88;21031;-64
2021/07/01 13:07:09;;;;;;;2.67;2.47;;;;;;;24.97;59.65;99675.08;2703349;88;21020;-64
2021/07/01 13:11:11;;;;;;;2.63;2.10;;;;;;;24.86;58.61;99685.70;2738255;86;21028;-65
2021/07/01 13:15:19;;;;;;;8.43;2.60;;;;;;;24.75;60.59;99692.79;2796971;85;21024;-64
2021/07/01 13:19:21;;;;;;;2.65;2.33;;;;;;;24.80;60.86;99694.81;2796172;83;21108;-64
2021/07/01 13:23:24;;;;;;;1.98;1.75;;;;;;;24.87;61.03;99700.15;2796596;85;20996;-65
2021/07/01 13:27:54;;;;;;;3.47;2.58;;;;;;;24.91;60.16;99695.89;2794811;82;21017;-65
2021/07/01 13:32:03;;;;;;;2.72;2.52;;;;;;;24.92;60.60;99698.36;2802708;82;21020;-65
2021/07/01 13:36:08;;;;;;;3.47;2.45;;;;;;;25.03;60.04;99702.69;2800902;83;20993;-65
2021/07/01 13:40:26;;;;;;;2.45;2.02;;;;;;;25.09;60.26;99688.98;2805558;82;21016;-65
2021/07/01 13:44:30;;;;;;;4.50;2.75;;;;;;;25.12;60.57;99695.00;2769356;85;21063;-63
2021/07/01 13:48:40;;;;;;;3.65;3.35;;;;;;;25.21;61.02;99678.59;2759975;84;21035;-64
2021/07/01 13:52:47;;;;;;;3.30;2.92;;;;;;;25.18;60.30;99685.36;2768292;86;21019;-63
2021/07/01 13:57:04;;;;;;;3.17;2.80;;;;;;;25.00;60.76;99691.73;2768772;85;21003;-63
2021/07/01 14:01:08;;;;;;;4.20;3.77;;;;;;;24.74;61.56;99691.11;2768499;85;21043;-63
2021/07/01 14:05:12;;;;;;;4.03;3.02;;;;;;;24.68;60.95;99687.42;2768446;85;20972;-62
2021/07/01 14:09:39;;;;;;;3.20;2.85;;;;;;;24.76;62.79;99696.32;2759052;86;21314;-62
2021/07/01 14:13:58;;;;;;;5.28;2.92;;;;;;;24.67;63.85;99700.72;2768134;84;21019;-62
2021/07/01 14:18:12;;;;;;;2.83;2.60;;;;;;;24.90;65.07;99701.84;2768312;85;21015;-62
2021/07/01 14:22:16;;;;;;;2.27;1.85;;;;;;;25.28;62.67;99707.91;2768048;86;21046;-62
2021/07/01 14:26:21;;;;;;;2.95;2.22;;;;;;;25.44;60.13;99708.22;2768564;86;21059;-63
2021/07/01 14:30:45;;;;;;;2.42;1.77;;;;;;;25.41;60.18;99713.63;2768553;86;21094;-62
2021/07/01 14:34:47;;;;;;;3.35;1.85;;;;;;;25.43;59.97;99706.05;2713288;87;20995;-63
2021/07/01 14:39:08;;;;;;;2.98;1.60;;;;;;;25.55;61.17;99719.67;2714654;87;21031;-63
2021/07/01 14:43:10;;;;;;;2.02;0.65;;;;;;;25.72;59.93;99716.20;2714429;86;21081;-62
2021/07/01 14:47:18;;;;;;;0.93;0.55;;;;;;;25.94;58.17;99717.73;2715045;87;20995;-63
2021/07/01 14:51:32;;;;;;;1.27;1.15;;;;;;;25.98;57.13;99716.20;2714901;87;21042;-63
2021/07/01 14:55:37;;;;;;;1.10;0.85;;;;;;;25.96;58.50;99718.34;2749011;85;21047;-63
2021/07/01 15:00:06;;;;;;;0.98;0.78;;;;;;;25.99;58.55;99725.18;2749309;86;21405;-62
2021/07/01 15:04:09;;;;;;;0.57;0.37;;;;;;;25.98;56.62;99722.16;2714782;87;21544;-62
2021/07/01 15:08:12;;;;;;;2.15;0.30;;;;;;;25.73;56.75;99732.84;2714754;87;21006;-62
2021/07/01 15:12:23;;;;;;;1.87;0.40;;;;;;;25.69;57.39;99736.56;2714811;87;21070;-63
2021/07/01 15:16:26;;;;;;;0.60;0.40;;;;;;;25.61;57.13;99737.76;2714544;87;21027;-63
2021/07/01 15:20:29;;;;;;;1.20;0.60;;;;;;;25.61;57.57;99742.39;2714433;87;21097;-62
2021/07/01 15:24:31;;;;;;;1.92;0.50;;;;;;;25.66;59.54;99742.50;2714709;87;20991;-64
2021/07/01 15:28:36;;;;;;;3.12;1.40;;;;;;;25.71;58.22;99747.23;2714685;87;21022;-64
2021/07/01 15:32:39;;;;;;;0.68;0.68;;;;;;;25.80;59.20;99747.14;2714809;87;21014;-63
2021/07/01 15:36:42;;;;;;;3.15;0.95;;;;;;;25.76;58.39;99748.17;2714647;86;20999;-62
2021/07/01 15:40:48;;;;;;;1.05;0.88;;;;;;;25.81;57.90;99746.91;2714783;87;21102;-63
2021/07/01 15:44:51;;;;;;;1.22;1.12;;;;;;;25.87;57.92;99741.05;2714673;85;21025;-63
2021/07/01 15:49:01;;;;;;;3.45;1.15;;;;;;;25.81;56.96;99748.80;2714813;87;21006;-63
2021/07/01 15:53:03;;;;;;;1.12;0.75;;;;;;;25.81;58.17;99744.19;2713961;87;21032;-63
2021/07/01 15:57:08;;;;;;;1.47;1.02;;;;;;;25.72;57.35;99738.80;2713712;87;21027;-65
2021/07/01 16:01:11;;;;;;;1.10;1.10;;;;;;;25.69;57.87;99739.84;2713763;88;21027;-64
2021/07/01 16:05:15;;;;;;;1.98;1.10;;;;;;;25.58;58.12;99743.69;2713837;86;21019;-65
2021/07/01 16:09:24;;;;;;;1.77;1.20;;;;;;;25.56;59.44;99743.66;2713860;88;21063;-63
2021/07/01 16:13:28;;;;;;;1.80;1.20;;;;;;;25.60;58.44;99750.27;2712902;85;21011;-63
2021/07/01 16:17:35;;;;;;;2.05;1.22;;;;;;;25.59;58.68;99755.42;2729117;85;21017;-65
2021/07/01 16:21:40;;;;;;;1.60;1.47;;;;;;;25.64;58.84;99755.53;2715074;86;21066;-64
2021/07/01 16:25:44;;;;;;;;;;;;;;;25.62;59.03;99757.11;2745137;85;21004;-64
2021/07/01 16:30:00;;;;;;;1.62;1.17;;;;;;;25.55;57.99;99760.51;2732502;86;20100;-64
2021/07/01 16:34:05;;;;;;;1.37;1.27;;;;;;;25.50;57.33;99768.57;2702909;87;21066;-64
2021/07/01 16:38:11;;;;;;;;;;;;;;;25.33;58.42;99772.48;2745970;86;21042;-64
2021/07/01 16:42:13;;;;;;;1.72;1.05;;;;;;;24.99;59.43;99765.44;2714934;86;20143;-64
2021/07/01 16:46:25;;;;;;;1.75;1.40;;;;;;;24.66;60.18;99764.84;2770049;85;20996;-64
2021/07/01 16:50:38;;;;;;;3.55;1.32;;;;;;;24.43;61.63;99775.94;2795768;84;21035;-64
2021/07/01 16:54:40;;;;;;;1.95;1.65;;;;;;;24.24;63.40;99773.26;2802571;85;21078;-64
2021/07/01 16:58:49;;;;;;;1.45;1.05;;;;;;;24.08;64.40;99771.19;2800472;85;20965;-64
2021/07/01 17:02:53;;;;;;;1.50;1.25;;;;;;;23.86;65.62;99785.72;2794039;85;21023;-63
2021/07/01 17:06:57;;;;;;;1.25;0.95;;;;;;;23.71;66.96;99791.53;2795458;85;21063;-63
2021/07/01 17:11:20;;;;;;;1.10;0.78;;;;;;;23.59;67.56;99795.52;2795390;85;21014;-64
2021/07/01 17:15:26;;;;;;;5.25;1.12;;;;;;;23.54;68.55;99798.34;2796607;85;21028;-63
2021/07/01 17:19:50;;;;;;;4.85;1.67;;;;;;;23.53;69.84;99804.02;2797208;84;21028;-63
2021/07/01 17:23:57;;;;;;;3.15;1.15;;;;;;;23.45;71.29;99808.36;2797622;85;20983;-62
2021/07/01 17:28:00;;;;;;;1.45;1.30;;;;;;;23.38;71.95;99806.54;2803026;84;21013;-62
2021/07/01 17:32:06;;;;;;;8.73;1.22;;;;;;;23.27;73.32;99810.51;2793324;85;20976;-62
2021/07/01 17:36:08;;;;;;;;;;;;;;;23.24;73.58;99814.45;2800815;85;21060;-62
2021/07/01 17:40:27;;;;;;;6.80;1.50;;;;;;;23.25;74.42;99810.20;2800181;85;20126;-63
2021/07/01 17:44:34;;;;;;;1.80;1.27;;;;;;;23.30;74.39;99805.98;2796598;84;21564;-63
2021/07/01 17:48:46;;;;;;;1.87;1.45;;;;;;;23.33;74.48;99806.90;2793015;85;21564;-63
2021/07/01 17:52:49;;;;;;;1.75;1.65;;;;;;;23.25;75.39;99820.18;2792966;85;21036;-63
2021/07/01 17:56:52;;;;;;;4.12;1.90;;;;;;;23.24;76.20;99822.08;2792801;85;21039;-63
2021/07/01 18:00:55;;;;;;;1.60;1.50;;;;;;;23.23;76.93;99819.58;2777635;85;21017;-63
2021/07/01 18:04:58;;;;;;;2.52;2.33;;;;;;;23.35;77.64;99822.42;2783418;85;21036;-62
2021/07/01 18:09:05;;;;;;;1.47;1.17;;;;;;;23.50;77.10;99821.56;2793493;85;21065;-64
2021/07/01 18:13:08;;;;;;;5.05;1.90;;;;;;;23.49;75.56;99825.34;2792228;85;21064;-63
2021/07/01 18:17:14;;;;;;;2.52;1.92;;;;;;;23.52;71.64;99828.95;2840922;83;21067;-62
2021/07/01 18:21:16;;;;;;;2.87;1.75;;;;;;;23.35;69.46;99834.64;2843335;82;21134;-63
2021/07/01 18:25:23;;;;;;;3.90;1.80;;;;;;;23.05;69.49;99837.98;2843278;83;20976;-63
2021/07/01 18:29:28;;;;;;;1.32;1.22;;;;;;;22.81;67.82;99843.14;2783113;85;20981;-63
2021/07/01 18:33:31;;;;;;;2.02;1.75;;;;;;;22.62;69.22;99844.39;2776812;85;20965;-63
2021/07/01 18:37:34;;;;;;;5.37;2.50;;;;;;;22.30;69.69;99845.64;2776379;85;20942;-64
2021/07/01 18:41:38;;;;;;;5.12;2.52;;;;;;;22.03;69.82;99851.66;2788353;85;21106;-63
2021/07/01 18:45:48;;;;;;;3.02;2.27;;;;;;;21.83;70.60;99862.85;2770885;84;21039;-63
2021/07/01 18:49:48;;;;;;;2.65;2.45;;;;;;;21.61;71.89;99870.33;2765003;85;21060;-61
2021/07/01 18:53:52;;;;;;;3.93;3.30;;;;;;;21.40;72.08;99879.47;2700275;88;21038;-62
2021/07/01 18:58:01;;;;;;;5.28;3.40;;;;;;;21.35;72.60;99886.03;2723000;85;21002;-62
2021/07/01 19:02:04;;;;;;;2.55;2.08;;;;;;;21.28;72.60;99889.26;2745538;85;21011;-63
2021/07/01 19:06:07;;;;;;;2.85;2.65;;;;;;;21.26;72.55;99893.00;2746623;86;21015;-64
2021/07/01 19:10:12;;;;;;;4.37;2.27;;;;;;;21.22;73.22;99903.92;2745957;86;21048;-63
2021/07/01 19:14:15;;;;;;;7.95;7.05;;;;;;;21.19;74.27;99907.55;2744845;86;20999;-62
2021/07/01 19:18:24;;;;;;;48.23;35.48;;;;;;;21.15;75.70;99915.77;2745711;86;21043;-62
2021/07/01 19:22:27;;;;;;;31.12;25.12;;;;;;;21.08;76.08;99918.45;2745839;85;21083;-63
2021/07/01 19:26:29;;;;;;;22.80;17.40;;;;;;;21.00;76.69;99917.27;2745516;86;21497;-62
2021/07/01 19:30:37;;;;;;;8.93;8.03;;;;;;;20.93;77.06;99931.61;2746136;86;21016;-63